createdAt,value
2022-10-11T00:01:04.323Z,14.65
2022-10-11T00:03:32.347Z,14.56
2022-10-11T00:06:03.688Z,14.46
2022-10-11T00:08:32.118Z,14.50
2022-10-11T00:11:01.121Z,14.45
2022-10-11T00:13:30.371Z,14.31
2022-10-11T00:15:58.798Z,14.20
2022-10-11T00:18:29.301Z,14.13
2022-10-11T00:21:07.385Z,14.07
2022-10-11T00:23:35.436Z,14.01
2022-10-11T00:26:06.106Z,13.97
2022-10-11T00:28:35.289Z,13.98
2022-10-11T00:31:05.199Z,13.95
2022-10-11T00:33:33.449Z,13.88
2022-10-11T00:36:02.220Z,13.84
2022-10-11T00:38:32.209Z,13.82
2022-10-11T00:41:00.455Z,13.82
2022-10-11T00:43:32.864Z,13.80
2022-10-11T00:46:24.200Z,13.77
2022-10-11T00:48:58.910Z,13.75
2022-10-11T00:51:44.502Z,13.72
2022-10-11T00:54:17.888Z,13.69
2022-10-11T00:56:49.763Z,13.68
2022-10-11T00:59:24.786Z,13.63
2022-10-11T01:01:53.011Z,13.63
2022-10-11T01:04:20.871Z,13.61
2022-10-11T01:06:51.755Z,13.60
2022-10-11T01:09:23.265Z,13.56
2022-10-11T01:11:54.055Z,13.51
2022-10-11T01:14:40.018Z,13.40
2022-10-11T01:17:16.734Z,13.35
2022-10-11T01:20:03.396Z,13.32
2022-10-11T01:22:50.669Z,13.31
2022-10-11T01:25:28.684Z,13.25
2022-10-11T01:28:29.114Z,13.25
2022-10-11T01:31:05.072Z,13.18
2022-10-11T01:33:41.333Z,13.12
2022-10-11T01:36:19.039Z,13.08
2022-10-11T01:38:50.611Z,13.05
2022-10-11T01:41:22.745Z,13.02
2022-10-11T01:43:53.103Z,12.98
2022-10-11T01:46:22.789Z,12.93
2022-10-11T01:48:51.872Z,12.94
2022-10-11T01:51:23.037Z,12.89
2022-10-11T01:54:06.905Z,12.88
2022-10-11T01:56:57.643Z,12.87
2022-10-11T01:59:40.187Z,12.81
2022-10-11T02:02:21.390Z,12.84
2022-10-11T02:04:56.004Z,12.83
2022-10-11T02:07:30.261Z,12.85
2022-10-11T02:10:04.859Z,12.83
2022-10-11T02:12:41.102Z,12.77
2022-10-11T02:15:15.009Z,12.79
2022-10-11T02:17:48.806Z,12.71
2022-10-11T02:20:21.148Z,12.71
2022-10-11T02:22:52.529Z,12.70
2022-10-11T02:25:24.075Z,12.70
2022-10-11T02:27:55.868Z,12.68
2022-10-11T02:30:23.856Z,12.68
2022-10-11T02:32:55.670Z,12.67
2022-10-11T02:35:28.077Z,12.66
2022-10-11T02:38:05.436Z,12.62
2022-10-11T02:40:36.737Z,12.60
2022-10-11T02:43:12.984Z,12.54
2022-10-11T02:45:45.304Z,12.47
2022-10-11T02:48:15.379Z,12.41
2022-10-11T02:50:44.408Z,12.37
2022-10-11T02:53:12.382Z,12.32
2022-10-11T02:55:40.403Z,12.29
2022-10-11T02:58:08.249Z,12.25
2022-10-11T03:00:36.279Z,12.19
2022-10-11T03:03:06.521Z,12.16
2022-10-11T03:05:40.560Z,12.16
2022-10-11T03:08:09.929Z,12.10
2022-10-11T03:10:39.536Z,12.08
2022-10-11T03:13:07.412Z,12.01
2022-10-11T03:15:35.940Z,11.98
2022-10-11T03:18:03.883Z,11.95
2022-10-11T03:20:31.700Z,11.90
2022-10-11T03:23:00.937Z,11.87
2022-10-11T03:25:29.330Z,11.85
2022-10-11T03:27:59.968Z,11.81
2022-10-11T03:30:28.100Z,11.78
2022-10-11T03:32:56.076Z,11.70
2022-10-11T03:35:24.029Z,11.67
2022-10-11T03:37:51.877Z,11.64
2022-10-11T03:40:21.338Z,11.61
2022-10-11T03:42:49.278Z,11.61
2022-10-11T03:45:17.087Z,11.60
2022-10-11T03:47:47.387Z,11.55
2022-10-11T03:50:17.865Z,11.60
2022-10-11T03:52:45.693Z,11.60
2022-10-11T03:55:13.630Z,11.57
2022-10-11T03:57:43.128Z,11.54
2022-10-11T04:00:11.712Z,11.52
2022-10-11T04:02:39.540Z,11.46
2022-10-11T04:05:08.032Z,11.42
2022-10-11T04:07:35.930Z,11.41
2022-10-11T04:10:08.562Z,11.37
2022-10-11T04:12:38.013Z,11.32
2022-10-11T04:15:08.942Z,11.31
2022-10-11T04:17:36.742Z,11.28
2022-10-11T04:20:05.157Z,11.22
2022-10-11T04:22:35.555Z,11.20
2022-10-11T04:25:03.357Z,11.17
2022-10-11T04:27:32.216Z,11.10
2022-10-11T04:30:00.161Z,11.09
2022-10-11T04:32:29.393Z,11.04
2022-10-11T04:34:57.360Z,11.04
2022-10-11T04:37:27.270Z,11.00
2022-10-11T04:39:55.134Z,10.97
2022-10-11T04:42:23.127Z,10.94
2022-10-11T04:44:55.475Z,10.93
2022-10-11T04:47:23.445Z,10.87
2022-10-11T04:49:52.624Z,10.82
2022-10-11T04:52:25.405Z,10.81
2022-10-11T04:54:53.859Z,10.75
2022-10-11T04:57:21.670Z,10.72
2022-10-11T04:59:50.395Z,10.72
2022-10-11T05:02:18.955Z,10.70
2022-10-11T05:04:47.025Z,10.67
2022-10-11T05:07:16.271Z,10.62
2022-10-11T05:09:44.192Z,10.63
2022-10-11T05:12:12.005Z,10.59
2022-10-11T05:14:40.028Z,10.56
2022-10-11T05:17:07.760Z,10.51
2022-10-11T05:19:35.711Z,10.51
2022-10-11T05:22:03.745Z,10.50
2022-10-11T05:24:33.128Z,10.49
2022-10-11T05:27:03.283Z,10.47
2022-10-11T05:29:31.846Z,10.46
2022-10-11T05:32:01.886Z,10.45
2022-10-11T05:34:29.849Z,10.43
2022-10-11T05:36:57.875Z,10.40
2022-10-11T05:39:25.786Z,10.34
2022-10-11T05:41:54.893Z,10.34
2022-10-11T05:44:22.783Z,10.33
2022-10-11T05:46:50.614Z,10.29
2022-10-11T05:49:20.589Z,10.30
2022-10-11T05:51:48.372Z,10.29
2022-10-11T05:54:16.353Z,10.25
2022-10-11T05:56:44.822Z,10.24
2022-10-11T05:59:14.163Z,10.22
2022-10-11T06:01:42.058Z,10.21
2022-10-11T06:04:11.664Z,10.22
2022-10-11T06:06:41.687Z,10.23
2022-10-11T06:09:09.680Z,10.24
2022-10-11T06:11:41.309Z,10.23
2022-10-11T06:14:35.067Z,10.26
2022-10-11T06:17:06.837Z,10.25
2022-10-11T06:19:34.705Z,10.27
2022-10-11T06:22:02.630Z,10.29
2022-10-11T06:24:30.491Z,10.27
2022-10-11T06:26:58.406Z,10.28
2022-10-11T06:29:26.250Z,10.32
2022-10-11T06:31:56.279Z,10.32
2022-10-11T06:34:25.385Z,10.36
2022-10-11T06:36:55.827Z,10.37
2022-10-11T06:39:23.698Z,10.38
2022-10-11T06:41:51.525Z,10.39
2022-10-11T06:44:19.518Z,10.42
2022-10-11T06:46:47.407Z,10.44
2022-10-11T06:49:22.968Z,10.44
2022-10-11T06:51:54.945Z,10.43
2022-10-11T06:54:22.844Z,10.46
2022-10-11T06:56:53.073Z,10.45
2022-10-11T06:59:21.149Z,10.51
2022-10-11T07:01:51.520Z,10.52
2022-10-11T07:04:21.625Z,10.56
2022-10-11T07:06:50.061Z,10.60
2022-10-11T07:09:19.259Z,10.63
2022-10-11T07:11:48.856Z,10.66
2022-10-11T07:14:16.734Z,10.68
2022-10-11T07:16:44.716Z,10.71
2022-10-11T07:19:12.601Z,10.77
2022-10-11T07:21:40.487Z,10.80
2022-10-11T07:24:08.601Z,10.85
2022-10-11T07:26:38.747Z,10.91
2022-10-11T07:29:12.359Z,10.95
2022-10-11T07:31:42.285Z,10.98
2022-10-11T07:34:10.690Z,11.02
2022-10-11T07:36:38.675Z,11.10
2022-10-11T07:39:08.206Z,11.13
2022-10-11T07:41:43.126Z,11.18
2022-10-11T07:44:13.571Z,11.25
2022-10-11T07:46:41.398Z,11.31
2022-10-11T07:49:09.298Z,11.38
2022-10-11T07:51:37.303Z,11.44
2022-10-11T07:54:07.695Z,11.51
2022-10-11T07:56:38.085Z,11.58
2022-10-11T07:59:06.374Z,11.63
2022-10-11T08:01:34.336Z,11.70
2022-10-11T08:04:02.302Z,11.79
2022-10-11T08:06:32.418Z,11.91
2022-10-11T08:09:02.087Z,11.96
2022-10-11T08:11:32.305Z,12.02
2022-10-11T08:14:04.342Z,12.08
2022-10-11T08:16:32.138Z,12.15
2022-10-11T08:19:00.956Z,12.19
2022-10-11T08:21:28.829Z,12.26
2022-10-11T08:23:58.911Z,12.31
2022-10-11T08:26:26.798Z,12.38
2022-10-11T08:28:54.953Z,12.48
2022-10-11T08:31:24.100Z,12.54
2022-10-11T08:33:52.015Z,12.60
2022-10-11T08:36:19.826Z,12.66
2022-10-11T08:38:50.304Z,12.68
2022-10-11T08:41:32.677Z,12.76
2022-10-11T08:44:18.497Z,12.84
2022-10-11T08:46:51.775Z,12.88
2022-10-11T08:49:24.640Z,12.96
2022-10-11T08:52:00.054Z,13.07
2022-10-11T08:54:38.791Z,13.15
2022-10-11T08:57:08.864Z,13.22
2022-10-11T08:59:42.452Z,13.28
2022-10-11T09:02:25.193Z,13.33
2022-10-11T09:04:55.624Z,13.40
2022-10-11T09:07:38.565Z,13.50
2022-10-11T09:10:25.357Z,13.59
2022-10-11T09:13:02.474Z,13.64
2022-10-11T09:15:39.474Z,13.73
2022-10-11T09:18:35.708Z,13.83
2022-10-11T09:21:19.008Z,13.91
2022-10-11T09:24:07.566Z,13.97
2022-10-11T09:26:43.584Z,14.03
2022-10-11T09:29:18.718Z,14.08
2022-10-11T09:31:49.611Z,14.14
2022-10-11T09:34:19.728Z,14.18
2022-10-11T09:36:55.810Z,14.26
2022-10-11T09:39:31.089Z,14.36
2022-10-11T09:42:02.592Z,14.45
2022-10-11T09:44:34.962Z,14.53
2022-10-11T09:47:02.964Z,14.60
2022-10-11T09:49:37.002Z,14.65
2022-10-11T09:52:12.182Z,14.68
2022-10-11T09:54:42.281Z,14.72
2022-10-11T09:57:20.973Z,14.75
2022-10-11T10:00:00.923Z,14.85
2022-10-11T10:02:29.947Z,14.92
2022-10-11T10:05:14.060Z,15.00
2022-10-11T10:08:04.126Z,15.12
2022-10-11T10:10:39.733Z,15.18
2022-10-11T10:13:21.918Z,15.29
2022-10-11T10:15:53.474Z,15.35
2022-10-11T10:18:24.720Z,15.40
2022-10-11T10:20:56.620Z,15.46
2022-10-11T10:23:29.731Z,15.55
2022-10-11T10:26:22.652Z,15.65
2022-10-11T10:29:18.532Z,15.69
2022-10-11T10:32:14.393Z,15.70
2022-10-11T10:34:56.274Z,15.74
2022-10-11T10:37:30.259Z,15.77
2022-10-11T10:40:06.494Z,15.74
2022-10-11T10:42:34.441Z,15.78
2022-10-11T10:45:07.343Z,15.82
2022-10-11T10:48:04.021Z,15.91
2022-10-11T10:50:44.448Z,15.95
2022-10-11T10:53:25.368Z,16.01
2022-10-11T10:56:00.199Z,16.08
2022-10-11T10:58:51.165Z,16.22
2022-10-11T11:01:27.215Z,16.27
2022-10-11T11:04:02.579Z,16.29
2022-10-11T11:06:37.916Z,16.35
2022-10-11T11:09:22.416Z,16.38
2022-10-11T11:12:00.260Z,16.42
2022-10-11T11:14:41.287Z,16.52
2022-10-11T11:17:19.255Z,16.64
2022-10-11T11:20:00.916Z,16.74
2022-10-11T11:22:40.248Z,16.81
2022-10-11T11:25:24.807Z,16.88
2022-10-11T11:28:05.121Z,16.88
2022-10-11T11:30:45.667Z,16.92
2022-10-11T11:33:24.918Z,16.98
2022-10-11T11:35:58.783Z,17.03
2022-10-11T11:38:35.058Z,17.01
2022-10-11T11:41:10.858Z,17.13
2022-10-11T11:43:48.153Z,17.19
2022-10-11T11:46:21.342Z,17.34
2022-10-11T11:48:50.059Z,17.45
2022-10-11T11:51:22.068Z,17.55
2022-10-11T11:53:59.058Z,17.62
2022-10-11T11:56:34.236Z,17.56
2022-10-11T11:59:10.683Z,17.67
2022-10-11T12:01:44.002Z,17.82
2022-10-11T12:04:20.822Z,17.95
2022-10-11T12:07:16.057Z,18.00
2022-10-11T12:09:50.494Z,18.04
2022-10-11T12:12:31.809Z,18.12
2022-10-11T12:15:17.553Z,18.20
2022-10-11T12:18:04.508Z,18.33
2022-10-11T12:20:36.902Z,18.39
2022-10-11T12:23:25.787Z,18.49
2022-10-11T12:26:19.806Z,18.58
2022-10-11T12:29:35.488Z,18.53
2022-10-11T12:32:51.919Z,18.57
2022-10-11T12:35:53.725Z,18.64
2022-10-11T12:38:31.274Z,18.83
2022-10-11T12:41:04.097Z,19.01
2022-10-11T12:43:36.158Z,19.06
2022-10-11T12:46:58.836Z,19.15
2022-10-11T12:49:36.605Z,19.13
2022-10-11T12:52:25.120Z,19.26
2022-10-11T12:55:12.632Z,19.31
2022-10-11T12:58:12.711Z,19.37
2022-10-11T13:00:46.704Z,19.41
2022-10-11T13:03:32.576Z,19.47
2022-10-11T13:06:13.533Z,19.63
2022-10-11T13:08:46.595Z,19.81
2022-10-11T13:11:21.617Z,19.94
2022-10-11T13:13:56.420Z,19.93
2022-10-11T13:16:26.975Z,19.81
2022-10-11T13:18:58.684Z,19.84
2022-10-11T13:21:30.651Z,19.70
2022-10-11T13:24:03.197Z,19.62
2022-10-11T13:26:32.984Z,19.72
2022-10-11T13:29:01.349Z,19.86
2022-10-11T13:31:31.774Z,19.87
2022-10-11T13:34:05.729Z,19.92
2022-10-11T13:36:33.720Z,19.99
2022-10-11T13:39:02.709Z,20.04
2022-10-11T13:41:34.918Z,20.15
2022-10-11T13:44:04.459Z,20.23
2022-10-11T13:46:34.243Z,20.32
2022-10-11T13:49:07.703Z,20.27
2022-10-11T13:51:37.152Z,20.16
2022-10-11T13:54:13.273Z,20.25
2022-10-11T13:56:48.711Z,20.43
2022-10-11T13:59:19.999Z,20.56
2022-10-11T14:02:01.317Z,20.63
2022-10-11T14:04:39.534Z,20.72
2022-10-11T14:07:23.547Z,20.63
2022-10-11T14:09:52.001Z,20.78
2022-10-11T14:12:38.096Z,20.58
2022-10-11T14:15:23.290Z,20.50
2022-10-11T14:17:52.116Z,20.50
2022-10-11T14:20:23.897Z,20.52
2022-10-11T14:22:55.044Z,20.47
2022-10-11T14:25:23.004Z,20.43
2022-10-11T14:27:54.281Z,20.48
2022-10-11T14:30:26.202Z,20.49
2022-10-11T14:32:57.276Z,20.43
2022-10-11T14:35:33.295Z,20.38
2022-10-11T14:38:01.310Z,20.32
2022-10-11T14:40:31.494Z,20.17
2022-10-11T14:43:03.053Z,19.98
2022-10-11T14:45:33.600Z,19.80
2022-10-11T14:48:01.392Z,19.69
2022-10-11T14:50:36.357Z,19.58
2022-10-11T14:53:04.793Z,19.50
2022-10-11T14:55:33.007Z,19.48
2022-10-11T14:58:01.353Z,19.47
2022-10-11T15:00:31.728Z,19.39
2022-10-11T15:02:59.988Z,19.34
2022-10-11T15:05:33.858Z,19.31
2022-10-11T15:08:02.668Z,19.24
2022-10-11T15:10:34.607Z,19.21
2022-10-11T15:13:03.319Z,19.19
2022-10-11T15:15:35.423Z,19.11
2022-10-11T15:18:07.907Z,19.08
2022-10-11T15:20:40.265Z,19.02
2022-10-11T15:23:10.361Z,18.95
2022-10-11T15:25:40.158Z,18.84
2022-10-11T15:28:08.927Z,18.75
2022-10-11T15:30:41.623Z,18.64
2022-10-11T15:33:12.242Z,18.54
2022-10-11T15:35:39.985Z,18.46
2022-10-11T15:38:07.860Z,18.34
2022-10-11T15:40:37.982Z,18.22
2022-10-11T15:43:08.009Z,18.11
2022-10-11T15:45:37.897Z,17.99
2022-10-11T15:48:06.275Z,17.85
2022-10-11T15:50:37.754Z,17.74
2022-10-11T15:53:07.764Z,17.64
2022-10-11T15:55:38.403Z,17.57
2022-10-11T15:58:06.831Z,17.46
2022-10-11T16:00:34.681Z,17.31
2022-10-11T16:03:07.148Z,17.23
2022-10-11T16:05:34.900Z,17.12
2022-10-11T16:08:02.705Z,17.01
2022-10-11T16:10:30.576Z,16.99
2022-10-11T16:12:58.571Z,16.87
2022-10-11T16:15:26.563Z,16.76
2022-10-11T16:17:56.649Z,16.60
2022-10-11T16:20:25.971Z,16.54
2022-10-11T16:22:55.236Z,16.50
2022-10-11T16:25:23.906Z,16.33
2022-10-11T16:27:52.610Z,16.20
2022-10-11T16:30:21.442Z,16.12
2022-10-11T16:32:49.412Z,16.01
2022-10-11T16:35:18.096Z,15.94
2022-10-11T16:37:47.841Z,15.79
2022-10-11T16:40:20.391Z,15.72
2022-10-11T16:42:49.009Z,15.56
2022-10-11T16:45:17.265Z,15.44
2022-10-11T16:47:45.441Z,15.33
2022-10-11T16:50:16.402Z,15.23
2022-10-11T16:52:44.274Z,15.09
2022-10-11T16:55:15.731Z,14.99
2022-10-11T16:57:43.469Z,14.89
2022-10-11T17:00:13.335Z,14.80
2022-10-11T17:02:41.299Z,14.68
2022-10-11T17:05:09.144Z,14.59
2022-10-11T17:07:37.226Z,14.51
2022-10-11T17:10:06.060Z,14.42
2022-10-11T17:12:37.228Z,14.33
2022-10-11T17:15:06.624Z,14.21
2022-10-11T17:17:35.068Z,14.11
2022-10-11T17:20:06.295Z,14.02
2022-10-11T17:22:34.273Z,13.92
2022-10-11T17:25:03.332Z,13.78
2022-10-11T17:27:31.237Z,13.71
2022-10-11T17:30:00.399Z,13.65
2022-10-11T17:32:28.302Z,13.57
2022-10-11T17:34:57.244Z,13.49
2022-10-11T17:37:25.121Z,13.42
2022-10-11T17:39:53.785Z,13.34
2022-10-11T17:42:21.760Z,13.27
2022-10-11T17:44:49.605Z,13.22
2022-10-11T17:47:18.918Z,13.13
2022-10-11T17:49:46.789Z,13.07
2022-10-11T17:52:14.562Z,13.00
2022-10-11T17:54:44.524Z,12.95
2022-10-11T17:57:14.476Z,12.89
2022-10-11T17:59:42.460Z,12.81
2022-10-11T18:02:10.840Z,12.74
2022-10-11T18:04:40.170Z,12.69
2022-10-11T18:07:08.001Z,12.63
2022-10-11T18:09:36.733Z,12.55
2022-10-11T18:12:04.802Z,12.50
2022-10-11T18:14:32.716Z,12.43
2022-10-11T18:17:00.712Z,12.38
2022-10-11T18:19:31.914Z,12.31
2022-10-11T18:22:05.838Z,12.25
2022-10-11T18:24:37.265Z,12.14
2022-10-11T18:27:09.661Z,12.09
2022-10-11T18:29:37.545Z,11.99
2022-10-11T18:32:05.431Z,11.93
2022-10-11T18:34:33.305Z,11.88
2022-10-11T18:37:04.949Z,11.80
2022-10-11T18:39:32.790Z,11.78
2022-10-11T18:42:04.195Z,11.71
2022-10-11T18:44:32.945Z,11.67
2022-10-11T18:47:01.031Z,11.62
2022-10-11T18:49:28.969Z,11.55
2022-10-11T18:51:56.795Z,11.53
2022-10-11T18:54:26.072Z,11.45
2022-10-11T18:56:53.910Z,11.39
2022-10-11T18:59:21.804Z,11.34
2022-10-11T19:01:52.153Z,11.29
2022-10-11T19:04:21.116Z,11.25
2022-10-11T19:06:50.490Z,11.21
2022-10-11T19:09:21.805Z,11.18
2022-10-11T19:11:51.950Z,11.14
2022-10-11T19:14:22.035Z,11.10
2022-10-11T19:16:51.666Z,11.07
2022-10-11T19:19:21.366Z,11.00
2022-10-11T19:21:49.459Z,10.96
2022-10-11T19:24:18.215Z,10.90
2022-10-11T19:26:46.214Z,10.87
2022-10-11T19:29:19.736Z,10.84
2022-10-11T19:31:49.952Z,10.82
2022-10-11T19:34:18.283Z,10.77
2022-10-11T19:36:46.388Z,10.72
2022-10-11T19:39:18.912Z,10.67
2022-10-11T19:41:47.056Z,10.64
2022-10-11T19:44:17.326Z,10.61
2022-10-11T19:46:53.349Z,10.57
2022-10-11T19:49:22.444Z,10.54
2022-10-11T19:51:53.071Z,10.53
2022-10-11T19:54:21.037Z,10.51
2022-10-11T19:56:49.036Z,10.47
2022-10-11T19:59:18.340Z,10.45
2022-10-11T20:01:51.311Z,10.41
2022-10-11T20:04:47.453Z,10.37
2022-10-11T20:07:11.494Z,10.34
2022-10-11T20:09:39.442Z,10.29
2022-10-11T20:12:07.989Z,10.27
2022-10-11T20:14:37.181Z,10.23
2022-10-11T20:17:08.086Z,10.16
2022-10-11T20:19:36.060Z,10.16
2022-10-11T20:22:06.065Z,10.13
2022-10-11T20:24:34.545Z,10.10
2022-10-11T20:27:04.363Z,10.08
2022-10-11T20:29:32.400Z,10.06
2022-10-11T20:32:01.644Z,10.04
2022-10-11T20:34:30.309Z,10.01
2022-10-11T20:36:58.231Z,9.98
2022-10-11T20:39:28.380Z,9.94
2022-10-11T20:41:56.271Z,9.93
2022-10-11T20:44:24.183Z,9.89
2022-10-11T20:46:51.993Z,9.86
2022-10-11T20:49:22.338Z,9.81
2022-10-11T20:51:50.861Z,9.77
2022-10-11T20:54:18.674Z,9.75
2022-10-11T20:56:46.586Z,9.69
2022-10-11T20:59:16.529Z,9.67
2022-10-11T21:01:44.423Z,9.64
2022-10-11T21:04:18.764Z,9.61
2022-10-11T21:06:49.209Z,9.57
2022-10-11T21:09:17.519Z,9.52
2022-10-11T21:11:45.379Z,9.50
2022-10-11T21:14:13.562Z,9.46
2022-10-11T21:16:41.962Z,9.46
2022-10-11T21:19:14.125Z,9.48
2022-10-11T21:21:42.156Z,9.43
2022-10-11T21:24:11.409Z,9.42
2022-10-11T21:26:39.300Z,9.38
2022-10-11T21:29:08.327Z,9.36
2022-10-11T21:31:36.318Z,9.35
2022-10-11T21:34:05.115Z,9.33
2022-10-11T21:36:33.023Z,9.27
2022-10-11T21:39:00.845Z,9.26
2022-10-11T21:41:30.751Z,9.22
2022-10-11T21:43:59.178Z,9.18
2022-10-11T21:46:54.108Z,9.14
2022-10-11T21:49:16.886Z,9.13
2022-10-11T21:51:44.908Z,9.11
2022-10-11T21:54:12.914Z,9.11
2022-10-11T21:56:42.345Z,9.06
2022-10-11T21:59:12.386Z,9.02
2022-10-11T22:01:41.628Z,8.99
2022-10-11T22:04:10.051Z,8.97
2022-10-11T22:06:38.764Z,8.94
2022-10-11T22:09:09.613Z,8.92
2022-10-11T22:11:37.750Z,8.88
2022-10-11T22:14:07.114Z,8.86
2022-10-11T22:16:35.956Z,8.86
2022-10-11T22:19:04.121Z,8.86
2022-10-11T22:21:32.195Z,8.82
2022-10-11T22:24:00.056Z,8.78
2022-10-11T22:26:30.931Z,8.78
2022-10-11T22:29:00.047Z,8.73
2022-10-11T22:31:29.713Z,8.72
2022-10-11T22:33:59.132Z,8.67
2022-10-11T22:36:31.306Z,8.65
2022-10-11T22:38:59.513Z,8.65
2022-10-11T22:41:27.611Z,8.64
2022-10-11T22:43:55.506Z,8.58
2022-10-11T22:46:23.542Z,8.56
2022-10-11T22:48:52.815Z,8.51
2022-10-11T22:51:20.976Z,8.47
2022-10-11T22:53:48.830Z,8.49
2022-10-11T22:56:16.704Z,8.45
2022-10-11T22:58:44.537Z,8.45
2022-10-11T23:01:14.776Z,8.44
2022-10-11T23:03:42.991Z,8.36
2022-10-11T23:06:14.400Z,8.31
2022-10-11T23:08:42.330Z,8.30
2022-10-11T23:11:12.402Z,8.29
2022-10-11T23:13:40.348Z,8.25
2022-10-11T23:16:08.876Z,8.20
2022-10-11T23:18:36.983Z,8.18
2022-10-11T23:21:05.711Z,8.19
2022-10-11T23:23:34.932Z,8.18
2022-10-11T23:26:08.637Z,8.18
2022-10-11T23:28:36.605Z,8.17
2022-10-11T23:31:09.084Z,8.19
2022-10-11T23:33:37.377Z,8.17
2022-10-11T23:36:13.886Z,8.16
2022-10-11T23:38:45.758Z,8.17
2022-10-11T23:41:13.592Z,8.14
2022-10-11T23:43:41.444Z,8.11
2022-10-11T23:46:09.242Z,8.10
2022-10-11T23:48:37.104Z,8.10
2022-10-11T23:51:04.994Z,8.05
2022-10-11T23:53:33.026Z,7.99
2022-10-11T23:56:02.239Z,7.91
2022-10-11T23:58:30.224Z,7.91
